KMHL/MHL METAR and TAF weather

Enter ICAO airport designator
Station Type Date Time Source
KMHL METAR 2020/10/29 16:35 UTC NOAA

KMHL 291635Z AUTO 36012G17KT 10SM BKN021 06/02 A3001 RMK AO2


Station Type Date Time Source
KMHL Decoded METAR 2020/10/29 16:35 UTC NOAA

Station name not available
Oct 29, 2020 - 12:35 PM EDT / 2020.10.29 1635 UTC
Wind: from the N (360 degrees) at 14 MPH (12 KT) gusting to 20 MPH (17 KT):0
Visibility: 10 mile(s):0
Sky conditions: mostly cloudy
Temperature: 42 F (6 C)
Dew Point: 35 F (2 C)
Relative Humidity: 75%
Pressure (altimeter): 30.01 in. Hg (1016 hPa)
ob: KMHL 291635Z AUTO 36012G17KT 10SM BKN021 06/02 A3001 RMK AO2
cycle: 16

Station Type Date Time Source
KMHL TAF UTC NOAA

Error!

Example: see airport list